Time;durP1;ratioP1;P1;durP2;ratioP2;P2;SDS_P1;SDS_P2;PMS_P1;PMS_P2;Temp;Humidity;BMP_temperature;BMP_pressure;BME280_temperature;BME280_humidity;BME280_pressure;Samples;Min_cycle;Max_cycle;Signal;HPM_P1;HPM_P2
2023/06/22 00:00:41;;;;;;;17.45;15.75;;;;;;;22.50;68.35;100343.59;5131726;27;20199;-65
2023/06/22 00:03:09;;;;;;;19.52;17.63;;;;;;;22.50;69.22;100346.22;5128007;27;20230;-65
2023/06/22 00:05:38;;;;;;;18.02;16.40;;;;;;;22.51;69.41;100353.16;5128042;27;20210;-65
2023/06/22 00:08:06;;;;;;;19.50;17.45;;;;;;;22.51;69.50;100349.69;5126052;27;20195;-65
2023/06/22 00:10:35;;;;;;;18.20;16.50;;;;;;;22.47;69.43;100354.25;5130273;27;20200;-64
2023/06/22 00:13:03;;;;;;;18.88;16.98;;;;;;;22.45;69.15;100358.72;5132837;27;20203;-65
2023/06/22 00:15:31;;;;;;;18.23;16.55;;;;;;;22.38;68.77;100360.00;5135195;27;20199;-64
2023/06/22 00:18:00;;;;;;;19.30;17.30;;;;;;;22.35;68.59;100361.03;5129594;27;20204;-65
2023/06/22 00:20:29;;;;;;;18.85;16.92;;;;;;;22.32;68.24;100360.38;5133515;27;20195;-65
2023/06/22 00:22:59;;;;;;;19.50;17.50;;;;;;;22.29;68.37;100355.28;5131389;27;20199;-64
2023/06/22 00:25:27;;;;;;;18.48;16.60;;;;;;;22.27;68.36;100357.13;5134983;27;20203;-64
2023/06/22 00:27:55;;;;;;;18.73;16.92;;;;;;;22.26;68.33;100352.81;5133710;27;20229;-64
2023/06/22 00:30:23;;;;;;;17.20;15.50;;;;;;;22.24;68.14;100346.78;5134778;27;20644;-64
2023/06/22 00:32:51;;;;;;;19.35;17.45;;;;;;;22.21;68.35;100347.81;5134675;27;20701;-64
2023/06/22 00:35:20;;;;;;;20.67;16.23;;;;;;;22.21;68.26;100342.56;5124009;27;20204;-64
2023/06/22 00:37:51;;;;;;;19.33;17.50;;;;;;;22.19;68.18;100341.78;5131718;27;20210;-64
2023/06/22 00:40:21;;;;;;;18.45;16.65;;;;;;;22.21;68.66;100350.44;5130675;27;20226;-64
2023/06/22 00:42:49;;;;;;;18.25;16.40;;;;;;;22.22;68.89;100349.50;5136642;27;20296;-63
2023/06/22 00:45:17;;;;;;;19.40;17.50;;;;;;;22.22;69.18;100351.28;5135893;27;20603;-63
2023/06/22 00:47:46;;;;;;;18.95;17.02;;;;;;;22.21;69.31;100352.22;5130742;27;20203;-64
2023/06/22 00:50:21;;;;;;;19.88;17.88;;;;;;;22.19;69.59;100347.03;5132174;27;20256;-64
2023/06/22 00:52:53;;;;;;;17.58;15.95;;;;;;;22.18;69.74;100342.75;5134283;27;20564;-64
2023/06/22 00:55:22;;;;;;;19.75;17.88;;;;;;;22.16;70.12;100345.44;5134560;27;20523;-63
2023/06/22 00:57:55;;;;;;;19.88;18.08;;;;;;;22.14;70.39;100344.69;5129811;27;20207;-63
2023/06/22 01:00:25;;;;;;;20.20;18.30;;;;;;;22.12;70.50;100349.13;5133217;27;20217;-63
2023/06/22 01:02:54;;;;;;;19.25;17.27;;;;;;;22.10;70.83;100342.28;5132505;27;20293;-65
2023/06/22 01:05:23;;;;;;;19.95;18.08;;;;;;;22.08;70.74;100337.09;5129623;27;20207;-65
2023/06/22 01:08:07;;;;;;;20.65;18.63;;;;;;;22.09;71.15;100323.06;5128528;27;20199;-65
2023/06/22 01:10:41;;;;;;;21.23;19.02;;;;;;;22.10;71.42;100324.75;5132168;27;20203;-65
2023/06/22 01:13:28;;;;;;;23.42;20.15;;;;;;;22.08;71.50;100318.72;5133243;27;20214;-64
2023/06/22 01:16:03;;;;;;;20.88;18.77;;;;;;;22.11;71.46;100318.56;5130075;27;20252;-63
2023/06/22 01:18:33;;;;;;;20.20;18.17;;;;;;;22.12;71.48;100333.38;5132990;27;20282;-63
2023/06/22 01:21:07;;;;;;;21.55;19.45;;;;;;;22.11;71.74;100323.81;5132253;27;20202;-63
2023/06/22 01:23:52;;;;;;;21.27;19.23;;;;;;;22.08;72.00;100317.88;5134195;27;20612;-63
2023/06/22 01:26:30;;;;;;;21.98;19.88;;;;;;;22.08;72.29;100320.50;5129142;27;20199;-64
2023/06/22 01:29:01;;;;;;;22.13;20.10;;;;;;;22.08;72.19;100313.47;5132649;27;20221;-63
2023/06/22 01:31:30;;;;;;;22.27;19.98;;;;;;;22.05;72.38;100302.31;5134052;27;20203;-65
2023/06/22 01:34:02;;;;;;;22.27;20.13;;;;;;;22.08;72.54;100310.00;5139483;27;20244;-64
2023/06/22 01:36:32;;;;;;;22.00;19.80;;;;;;;22.07;72.54;100303.94;5124926;27;20612;-65
2023/06/22 01:39:03;;;;;;;21.63;19.48;;;;;;;22.05;72.53;100305.78;5124901;27;20206;-65
2023/06/22 01:41:36;;;;;;;20.88;18.90;;;;;;;22.02;72.69;100310.34;5132912;27;20290;-65
2023/06/22 01:44:07;;;;;;;22.67;20.48;;;;;;;21.99;73.13;100303.50;5128186;27;20199;-65
2023/06/22 01:46:36;;;;;;;21.08;19.15;;;;;;;21.94;73.19;100306.41;5134712;27;20727;-64
2023/06/22 01:49:05;;;;;;;22.48;20.27;;;;;;;21.85;73.53;100312.13;5132872;27;20265;-63
2023/06/22 01:51:34;;;;;;;23.17;20.88;;;;;;;21.84;73.90;100306.97;5132325;27;20635;-64
2023/06/22 01:54:02;;;;;;;23.67;21.20;;;;;;;21.83;73.87;100313.13;5128351;27;20238;-65
2023/06/22 01:56:31;;;;;;;22.67;20.40;;;;;;;21.82;74.01;100322.78;5131368;27;20607;-63
2023/06/22 01:59:05;;;;;;;22.70;20.60;;;;;;;21.83;74.06;100321.84;5129461;27;20284;-60
2023/06/22 02:01:43;;;;;;;23.92;21.40;;;;;;;21.78;73.70;100317.78;5139741;27;20194;-59
2023/06/22 02:04:18;;;;;;;24.48;21.95;;;;;;;21.80;73.91;100332.53;5133350;27;20225;-61
2023/06/22 02:06:47;;;;;;;23.65;21.15;;;;;;;21.77;74.22;100339.72;5130539;27;20203;-61
2023/06/22 02:09:17;;;;;;;24.98;22.48;;;;;;;21.75;74.40;100344.16;5132171;27;20223;-61
2023/06/22 02:11:47;;;;;;;24.35;21.75;;;;;;;21.64;74.73;100340.34;5130282;27;20236;-60
2023/06/22 02:14:16;;;;;;;25.30;22.90;;;;;;;21.68;74.68;100360.22;5119393;27;20207;-62
2023/06/22 02:16:48;;;;;;;26.10;23.42;;;;;;;21.67;74.83;100365.56;5130571;27;20195;-62
2023/06/22 02:19:18;;;;;;;25.40;23.02;;;;;;;21.64;75.32;100363.09;5131257;27;20290;-61
2023/06/22 02:21:46;;;;;;;28.27;25.48;;;;;;;21.59;75.46;100362.50;5134072;27;20604;-61
2023/06/22 02:24:14;;;;;;;27.48;24.67;;;;;;;21.56;75.57;100366.13;5130527;27;20195;-60
2023/06/22 02:26:45;;;;;;;28.50;25.45;;;;;;;21.51;75.69;100362.91;5131905;27;20226;-62
2023/06/22 02:29:13;;;;;;;26.88;24.27;;;;;;;21.50;76.10;100363.81;5129121;27;20242;-60
2023/06/22 02:31:41;;;;;;;29.15;26.08;;;;;;;21.47;76.33;100369.22;5126838;27;20579;-61
2023/06/22 02:34:17;;;;;;;33.15;28.30;;;;;;;21.45;76.70;100376.31;5132697;27;20569;-60
2023/06/22 02:36:50;;;;;;;31.00;27.63;;;;;;;21.44;76.89;100388.59;5120605;27;20203;-60
2023/06/22 02:39:22;;;;;;;33.58;30.08;;;;;;;21.41;77.00;100388.72;5131622;27;20619;-62
2023/06/22 02:41:50;;;;;;;34.28;30.63;;;;;;;21.39;77.40;100392.34;5128802;27;20199;-62
2023/06/22 02:44:19;;;;;;;33.78;30.48;;;;;;;21.40;77.53;100394.06;5131613;27;20217;-61
2023/06/22 02:46:48;;;;;;;33.17;29.70;;;;;;;21.40;77.46;100402.78;5126879;27;20199;-61
2023/06/22 02:49:17;;;;;;;32.95;29.52;;;;;;;21.37;77.72;100407.31;5129282;27;20207;-60
2023/06/22 02:51:47;;;;;;;35.88;32.38;;;;;;;21.33;77.92;100405.75;5130973;27;20207;-63
2023/06/22 02:54:16;;;;;;;36.60;32.92;;;;;;;21.26;78.15;100405.22;5132101;27;20203;-61
2023/06/22 02:56:44;;;;;;;34.00;30.58;;;;;;;21.23;78.22;100406.19;5134271;27;20552;-61
2023/06/22 02:59:12;;;;;;;36.17;32.60;;;;;;;21.24;78.27;100409.66;5130447;27;20199;-60
2023/06/22 03:01:41;;;;;;;35.47;31.90;;;;;;;21.27;78.25;100416.53;5129712;27;20207;-60
2023/06/22 03:04:10;;;;;;;34.38;30.77;;;;;;;21.25;78.11;100407.91;5137514;27;20691;-60
2023/06/22 03:06:40;;;;;;;37.25;31.77;;;;;;;21.23;78.31;100405.34;5127907;27;20209;-61
2023/06/22 03:09:10;;;;;;;36.03;32.13;;;;;;;21.22;78.53;100414.16;5131133;27;20602;-60
2023/06/22 03:11:38;;;;;;;34.35;30.90;;;;;;;21.20;78.50;100427.31;5129946;27;20215;-59
2023/06/22 03:14:06;;;;;;;33.85;30.38;;;;;;;21.18;78.86;100423.94;5131542;27;20245;-62
2023/06/22 03:16:35;;;;;;;35.67;31.95;;;;;;;21.17;78.74;100437.97;5135015;27;20199;-61
2023/06/22 03:19:03;;;;;;;35.40;31.77;;;;;;;21.18;78.84;100433.56;5127513;27;20808;-62
2023/06/22 03:21:31;;;;;;;35.60;32.08;;;;;;;21.18;78.60;100433.56;5128178;27;20225;-61
2023/06/22 03:24:01;;;;;;;34.97;31.55;;;;;;;21.17;78.65;100434.47;5132897;27;20199;-61
2023/06/22 03:26:29;;;;;;;36.17;31.90;;;;;;;21.16;78.46;100436.25;5131613;27;20203;-60
2023/06/22 03:28:58;;;;;;;35.10;31.50;;;;;;;21.15;78.77;100434.56;5130580;27;20650;-62
2023/06/22 03:31:26;;;;;;;34.50;31.00;;;;;;;21.16;78.68;100427.53;5131725;27;20203;-59
2023/06/22 03:33:54;;;;;;;35.50;31.65;;;;;;;21.14;78.70;100427.63;5127221;27;20207;-61
2023/06/22 03:36:22;;;;;;;35.67;31.17;;;;;;;21.15;78.85;100431.94;5131628;27;20575;-60
2023/06/22 03:38:51;;;;;;;33.53;30.02;;;;;;;21.17;78.78;100431.84;5131554;27;20285;-60
2023/06/22 03:41:20;;;;;;;33.60;30.20;;;;;;;21.15;78.58;100434.56;5131720;27;20294;-62
2023/06/22 03:43:48;;;;;;;35.47;31.83;;;;;;;21.13;78.70;100436.41;5132039;28;20195;-60
2023/06/22 03:46:16;;;;;;;33.10;29.80;;;;;;;21.15;79.04;100445.03;5125227;27;20203;-60
2023/06/22 03:48:45;;;;;;;33.22;29.88;;;;;;;21.15;78.89;100455.53;5131929;27;20681;-60
2023/06/22 03:51:13;;;;;;;34.70;31.17;;;;;;;21.17;78.93;100456.31;5137359;27;20219;-61
2023/06/22 03:53:41;;;;;;;34.53;29.90;;;;;;;21.17;78.62;100464.19;5131816;27;20230;-61
2023/06/22 03:56:09;;;;;;;34.38;30.38;;;;;;;21.21;78.76;100464.88;5134402;27;20211;-60
2023/06/22 03:58:42;;;;;;;33.22;29.65;;;;;;;21.26;78.63;100462.03;5133477;27;20199;-59
2023/06/22 04:01:11;;;;;;;32.80;29.23;;;;;;;21.28;78.18;100461.00;5134598;27;20203;-59
2023/06/22 04:03:40;;;;;;;32.45;29.10;;;;;;;21.31;78.11;100460.00;5130788;27;20225;-61
2023/06/22 04:06:08;;;;;;;32.17;28.67;;;;;;;21.34;78.14;100460.75;5134788;27;20545;-61
2023/06/22 04:08:36;;;;;;;34.05;30.48;;;;;;;21.35;78.15;100454.56;5134604;27;20286;-60
2023/06/22 04:11:05;;;;;;;33.25;29.40;;;;;;;21.45;77.88;100466.31;5132215;27;20219;-59
2023/06/22 04:13:33;;;;;;;31.08;28.00;;;;;;;21.58;77.37;100469.16;5135239;27;20196;-60
2023/06/22 04:16:02;;;;;;;32.20;28.02;;;;;;;21.69;76.78;100466.84;5134850;27;20203;-62
2023/06/22 04:18:30;;;;;;;30.27;27.10;;;;;;;21.81;76.40;100472.41;5134685;27;20195;-62
2023/06/22 04:20:58;;;;;;;30.48;27.17;;;;;;;21.95;75.45;100472.53;5133543;27;20222;-60
2023/06/22 04:23:26;;;;;;;28.85;25.75;;;;;;;22.01;75.14;100466.94;5135390;27;20248;-60
2023/06/22 04:25:56;;;;;;;29.90;26.88;;;;;;;22.06;74.71;100464.09;5124274;27;20203;-60
2023/06/22 04:28:24;;;;;;;28.65;25.65;;;;;;;22.06;74.95;100480.69;5136485;27;20566;-60
2023/06/22 04:30:58;;;;;;;29.35;26.30;;;;;;;22.08;74.66;100480.59;5125504;27;20252;-61
2023/06/22 04:33:27;;;;;;;28.02;25.15;;;;;;;22.06;74.76;100488.56;5131961;27;20566;-59
2023/06/22 04:35:56;;;;;;;28.92;25.63;;;;;;;22.03;74.77;100486.09;5130222;27;20199;-60
2023/06/22 04:38:25;;;;;;;27.48;24.33;;;;;;;22.01;75.00;100487.09;5129656;27;20333;-59
2023/06/22 04:40:54;;;;;;;27.48;24.67;;;;;;;21.95;75.12;100483.88;5129584;27;20252;-60
2023/06/22 04:43:22;;;;;;;27.45;24.52;;;;;;;21.94;75.10;100481.31;5143979;27;20627;-61
2023/06/22 04:45:52;;;;;;;28.00;25.08;;;;;;;21.92;75.14;100486.66;5134995;27;20290;-60
2023/06/22 04:48:20;;;;;;;28.33;25.48;;;;;;;21.86;75.20;100478.25;5130904;27;20203;-62
2023/06/22 04:50:49;;;;;;;28.02;25.08;;;;;;;21.84;75.45;100480.97;5134186;27;20211;-59
2023/06/22 04:53:17;;;;;;;26.90;24.30;;;;;;;21.82;75.72;100476.72;5132575;27;20653;-60
2023/06/22 04:55:49;;;;;;;27.02;24.15;;;;;;;21.85;75.65;100482.66;5139801;27;20230;-61
2023/06/22 04:58:19;;;;;;;27.55;24.75;;;;;;;21.82;75.79;100488.03;5133050;27;20218;-60
2023/06/22 05:00:47;;;;;;;26.55;23.75;;;;;;;21.78;75.65;100481.25;5127444;27;20191;-62
2023/06/22 05:03:18;;;;;;;26.50;23.88;;;;;;;21.74;75.91;100484.13;5130923;27;20192;-60
2023/06/22 05:05:49;;;;;;;26.15;23.60;;;;;;;21.69;76.12;100479.97;5134545;27;20620;-59
2023/06/22 05:08:17;;;;;;;25.25;22.55;;;;;;;21.70;76.32;100484.28;5134153;27;20210;-59
2023/06/22 05:10:45;;;;;;;25.95;23.27;;;;;;;21.71;76.22;100479.88;5125897;27;20199;-61
2023/06/22 05:13:30;;;;;;;28.50;23.85;;;;;;;21.73;76.07;100478.03;5126555;27;20211;-60
2023/06/22 05:16:01;;;;;;;25.35;22.63;;;;;;;21.73;76.05;100477.19;5123785;27;20203;-62
2023/06/22 05:18:30;;;;;;;24.40;21.90;;;;;;;21.76;75.96;100479.63;5129746;27;20230;-60
2023/06/22 05:20:59;;;;;;;26.73;24.00;;;;;;;21.77;75.97;100483.97;5129601;27;20209;-64
2023/06/22 05:23:27;;;;;;;26.30;23.52;;;;;;;21.76;76.05;100480.50;5132928;27;20199;-64
2023/06/22 05:25:57;;;;;;;29.38;24.67;;;;;;;21.77;76.07;100479.56;5131707;27;20199;-61
2023/06/22 05:28:26;;;;;;;26.80;23.90;;;;;;;21.79;76.06;100487.34;5130955;27;20672;-60
2023/06/22 05:30:55;;;;;;;26.83;23.85;;;;;;;21.77;75.94;100491.84;5133234;27;20245;-61
2023/06/22 05:33:23;;;;;;;25.40;22.80;;;;;;;21.78;75.96;100493.53;5129256;27;20720;-65
2023/06/22 05:35:51;;;;;;;25.00;22.45;;;;;;;21.84;75.84;100501.09;5131449;27;20573;-64
2023/06/22 05:38:21;;;;;;;26.38;23.58;;;;;;;21.89;75.42;100499.09;5130732;27;20209;-64
2023/06/22 05:40:49;;;;;;;24.85;22.17;;;;;;;21.89;75.43;100501.69;5129440;27;20240;-64
2023/06/22 05:43:17;;;;;;;27.85;23.65;;;;;;;21.89;75.53;100506.94;5132109;27;20199;-63
2023/06/22 05:45:45;;;;;;;25.40;22.98;;;;;;;21.90;75.64;100512.09;5131279;27;20199;-64
2023/06/22 05:48:13;;;;;;;27.08;24.15;;;;;;;21.93;75.28;100517.19;5131165;27;20572;-64
2023/06/22 05:50:41;;;;;;;25.48;22.85;;;;;;;21.91;75.35;100520.84;5132920;27;20199;-64
2023/06/22 05:53:09;;;;;;;27.48;22.83;;;;;;;21.89;74.81;100514.81;5131343;27;20317;-64
2023/06/22 05:55:39;;;;;;;23.90;21.40;;;;;;;21.81;75.02;100517.00;5133522;27;20245;-59
2023/06/22 05:58:07;;;;;;;23.73;21.00;;;;;;;21.84;75.73;100516.84;5133834;27;20198;-62
2023/06/22 06:00:36;;;;;;;22.17;19.98;;;;;;;21.85;75.17;100515.91;5126847;27;20283;-61
2023/06/22 06:03:04;;;;;;;23.85;21.55;;;;;;;21.85;75.31;100513.28;5122643;27;20223;-61
2023/06/22 06:05:33;;;;;;;22.83;20.02;;;;;;;21.94;75.56;100507.56;5132640;27;20237;-61
2023/06/22 06:08:02;;;;;;;22.92;20.52;;;;;;;22.05;74.97;100509.63;5131375;27;20412;-59
2023/06/22 06:10:30;;;;;;;21.95;19.40;;;;;;;22.08;74.13;100517.34;5130848;27;20221;-61
2023/06/22 06:13:04;;;;;;;23.95;21.50;;;;;;;22.05;74.29;100525.38;5131782;27;20264;-60
2023/06/22 06:15:32;;;;;;;23.33;21.02;;;;;;;22.11;74.55;100531.16;5134354;27;20620;-61
2023/06/22 06:18:01;;;;;;;23.05;20.85;;;;;;;22.18;73.93;100532.56;5128934;27;20264;-61
2023/06/22 06:20:30;;;;;;;21.15;19.02;;;;;;;22.18;73.53;100532.56;5122124;27;20286;-60
2023/06/22 06:22:59;;;;;;;22.58;19.35;;;;;;;22.19;73.84;100539.50;5131062;27;20214;-59
2023/06/22 06:25:27;;;;;;;24.20;20.52;;;;;;;22.21;73.74;100541.22;5130457;27;20195;-60
2023/06/22 06:27:56;;;;;;;21.65;19.30;;;;;;;22.22;72.92;100532.41;5132684;27;20269;-62
2023/06/22 06:30:25;;;;;;;20.45;18.15;;;;;;;22.21;73.38;100531.56;5132349;27;20239;-60
2023/06/22 06:32:54;;;;;;;19.38;17.30;;;;;;;22.30;73.50;100535.47;5131665;27;20264;-59
2023/06/22 06:35:22;;;;;;;18.95;17.05;;;;;;;22.43;72.81;100533.91;5128817;27;20333;-61
2023/06/22 06:37:51;;;;;;;18.60;16.85;;;;;;;22.54;72.56;100528.94;5130511;27;20267;-63
2023/06/22 06:40:20;;;;;;;19.30;17.30;;;;;;;22.66;71.78;100535.31;5132717;27;20584;-60
2023/06/22 06:42:49;;;;;;;19.23;17.23;;;;;;;22.81;71.41;100526.59;5134080;27;20289;-60
2023/06/22 06:45:18;;;;;;;17.13;15.43;;;;;;;23.00;70.94;100531.72;5127983;27;20230;-62
2023/06/22 06:47:48;;;;;;;16.55;14.88;;;;;;;23.53;70.75;100525.22;5129687;27;20294;-63
2023/06/22 06:50:17;;;;;;;17.08;14.98;;;;;;;24.07;67.87;100524.69;5124755;27;20562;-60
2023/06/22 06:52:46;;;;;;;15.90;14.23;;;;;;;24.67;66.13;100521.94;5113308;27;20215;-60
2023/06/22 06:55:25;;;;;;;15.35;13.93;;;;;;;24.98;64.17;100517.34;5124178;27;20215;-60
2023/06/22 06:57:53;;;;;;;15.27;13.68;;;;;;;25.32;62.39;100517.81;5130202;27;20704;-61
2023/06/22 07:00:22;;;;;;;15.88;13.55;;;;;;;25.41;61.90;100525.97;5129674;27;20202;-60
2023/06/22 07:02:51;;;;;;;14.32;13.05;;;;;;;25.68;61.98;100517.19;5128496;27;20191;-60
2023/06/22 07:05:19;;;;;;;14.27;12.95;;;;;;;26.44;61.81;100522.50;5127573;27;20197;-61
2023/06/22 07:07:48;;;;;;;13.43;12.13;;;;;;;28.42;54.96;100516.66;5130172;27;20203;-60
2023/06/22 07:10:17;;;;;;;12.95;11.77;;;;;;;29.72;50.71;100502.59;5127588;27;20214;-57
2023/06/22 07:12:45;;;;;;;13.07;11.85;;;;;;;29.87;48.38;100505.75;5126499;27;20237;-60
2023/06/22 07:15:14;;;;;;;12.40;11.30;;;;;;;29.13;48.75;100516.34;5128830;27;20355;-60
2023/06/22 07:17:42;;;;;;;12.80;11.25;;;;;;;29.23;51.21;100506.63;5120461;27;20199;-59
2023/06/22 07:20:13;;;;;;;12.38;11.18;;;;;;;30.81;46.64;100514.44;5128126;27;20209;-59
2023/06/22 07:22:42;;;;;;;11.35;10.10;;;;;;;32.80;42.17;100517.22;5129943;27;20551;-60
2023/06/22 07:25:13;;;;;;;11.02;10.02;;;;;;;34.22;36.58;100517.28;5135207;27;20284;-59
2023/06/22 07:27:47;;;;;;;10.07;9.20;;;;;;;33.89;36.79;100520.56;5135379;27;20202;-61
2023/06/22 07:30:15;;;;;;;10.88;9.75;;;;;;;32.62;39.47;100522.50;5135609;27;20599;-58
2023/06/22 07:32:43;;;;;;;9.27;8.38;;;;;;;31.31;41.44;100532.22;5129455;27;20206;-58
2023/06/22 07:35:12;;;;;;;9.77;8.90;;;;;;;31.15;43.57;100535.38;5136422;27;20271;-57
2023/06/22 07:37:41;;;;;;;10.20;6.57;;;;;;;30.46;42.71;100538.81;5136042;27;20255;-58
2023/06/22 07:40:10;;;;;;;8.85;7.95;;;;;;;30.31;46.31;100533.03;5136053;27;20209;-57
2023/06/22 07:42:38;;;;;;;8.65;6.85;;;;;;;29.84;45.30;100538.72;5136178;27;20322;-60
2023/06/22 07:45:08;;;;;;;7.75;6.95;;;;;;;29.91;45.96;100533.75;5133442;27;20199;-59
2023/06/22 07:47:37;;;;;;;9.32;7.80;;;;;;;29.71;44.02;100532.75;5134245;27;20195;-59
2023/06/22 07:50:06;;;;;;;8.45;7.45;;;;;;;29.34;45.51;100534.97;5134971;27;20203;-63
2023/06/22 07:52:35;;;;;;;12.10;8.57;;;;;;;29.12;45.37;100531.41;5135610;27;20219;-58
2023/06/22 07:55:04;;;;;;;9.77;7.03;;;;;;;28.95;45.85;100531.91;5135860;27;20231;-58
2023/06/22 07:57:36;;;;;;;13.48;8.35;;;;;;;28.81;45.78;100538.34;5134772;27;20202;-59
2023/06/22 08:00:12;;;;;;;7.05;5.65;;;;;;;28.59;44.50;100535.72;5133212;27;20206;-58
2023/06/22 08:02:40;;;;;;;10.20;7.18;;;;;;;28.12;45.77;100538.41;5133972;27;20286;-57
2023/06/22 08:05:09;;;;;;;12.45;7.25;;;;;;;27.80;46.35;100540.91;5135527;27;20221;-58
2023/06/22 08:07:59;;;;;;;7.75;5.35;;;;;;;27.61;47.25;100540.56;5133660;27;20216;-58
2023/06/22 08:10:27;;;;;;;6.93;5.70;;;;;;;27.52;48.06;100531.50;5135769;27;20206;-58
2023/06/22 08:12:55;;;;;;;6.43;4.97;;;;;;;27.65;47.92;100537.59;5134086;27;20577;-58
2023/06/22 08:15:23;;;;;;;10.15;5.65;;;;;;;27.72;47.92;100529.16;5131502;27;20275;-59
2023/06/22 08:17:52;;;;;;;9.82;5.53;;;;;;;27.68;47.46;100531.19;5132801;27;20199;-59
2023/06/22 08:20:20;;;;;;;6.45;5.15;;;;;;;27.55;47.71;100533.94;5135373;27;20249;-59
2023/06/22 08:22:49;;;;;;;6.05;5.40;;;;;;;27.36;47.31;100528.31;5135279;27;20616;-59
2023/06/22 08:25:18;;;;;;;4.30;3.90;;;;;;;27.25;45.50;100534.41;5135106;27;20207;-59
2023/06/22 08:27:48;;;;;;;10.82;4.75;;;;;;;27.09;46.63;100533.78;5134918;27;20199;-60
2023/06/22 08:30:17;;;;;;;5.18;4.63;;;;;;;27.09;47.15;100534.63;5130398;27;20231;-61
2023/06/22 08:32:45;;;;;;;5.00;4.15;;;;;;;27.12;46.85;100530.97;5131915;27;20220;-59
2023/06/22 08:35:13;;;;;;;5.10;4.47;;;;;;;27.11;47.17;100530.13;5133534;27;20209;-58
2023/06/22 08:37:41;;;;;;;5.60;4.50;;;;;;;27.20;47.24;100539.16;5130820;27;20571;-59
2023/06/22 08:40:10;;;;;;;5.15;4.45;;;;;;;27.12;46.80;100533.59;5135445;27;20200;-58
2023/06/22 08:42:41;;;;;;;7.95;4.90;;;;;;;27.03;47.39;100534.22;5133825;27;20286;-60
2023/06/22 08:45:11;;;;;;;5.25;4.75;;;;;;;27.08;47.16;100526.81;5134381;27;20616;-59
2023/06/22 08:47:40;;;;;;;5.00;4.50;;;;;;;27.03;47.62;100537.75;5134225;27;20546;-60
2023/06/22 08:50:10;;;;;;;4.93;3.97;;;;;;;27.06;47.11;100544.59;5134958;27;20203;-58
2023/06/22 08:52:39;;;;;;;5.35;3.85;;;;;;;26.95;47.50;100538.31;5134027;27;20238;-60
2023/06/22 08:55:08;;;;;;;4.40;4.00;;;;;;;26.91;46.44;100536.81;5135215;27;20715;-59
2023/06/22 08:57:38;;;;;;;4.93;4.07;;;;;;;26.74;47.58;100545.13;5125604;27;20639;-59
2023/06/22 09:00:19;;;;;;;4.05;3.65;;;;;;;26.88;46.96;100552.91;5134293;27;20257;-58
2023/06/22 09:02:48;;;;;;;4.53;3.33;;;;;;;27.07;46.56;100547.13;5133708;27;20195;-60
2023/06/22 09:05:17;;;;;;;3.42;3.17;;;;;;;27.19;45.01;100553.38;5134594;27;20199;-60
2023/06/22 09:07:45;;;;;;;3.50;3.03;;;;;;;27.22;44.72;100555.78;5131828;27;20207;-59
2023/06/22 09:10:14;;;;;;;7.35;3.50;;;;;;;27.31;45.35;100552.47;5132425;27;20542;-59
2023/06/22 09:12:42;;;;;;;3.45;3.15;;;;;;;27.32;45.17;100551.53;5133200;27;20207;-58
2023/06/22 09:15:11;;;;;;;6.90;4.15;;;;;;;27.27;46.41;100552.81;5134114;27;20264;-59
2023/06/22 09:17:55;;;;;;;3.92;3.60;;;;;;;27.28;46.69;100554.47;5134454;27;20203;-59
2023/06/22 09:20:24;;;;;;;3.97;3.58;;;;;;;27.41;46.38;100540.25;5134420;27;20652;-59
2023/06/22 09:22:52;;;;;;;5.30;3.50;;;;;;;27.52;46.02;100539.44;5120987;27;20207;-60
2023/06/22 09:25:20;;;;;;;3.83;3.50;;;;;;;27.64;45.78;100535.88;5134213;27;20610;-59
2023/06/22 09:27:49;;;;;;;5.50;3.35;;;;;;;27.73;44.58;100538.78;5133819;27;20238;-59
2023/06/22 09:30:18;;;;;;;3.25;2.90;;;;;;;27.46;42.59;100532.78;5132902;27;20271;-60
2023/06/22 09:32:46;;;;;;;3.20;2.90;;;;;;;27.38;42.61;100524.59;5132232;27;20298;-58
2023/06/22 09:35:14;;;;;;;5.05;3.95;;;;;;;27.42;43.21;100535.78;5133025;27;20249;-60
2023/06/22 09:37:42;;;;;;;4.07;3.30;;;;;;;27.44;43.31;100526.78;5131808;27;20199;-59
2023/06/22 09:40:12;;;;;;;8.02;4.10;;;;;;;27.55;43.44;100522.50;5133803;27;20206;-59
2023/06/22 09:42:42;;;;;;;3.28;2.92;;;;;;;27.61;42.87;100530.78;5129499;27;20207;-58
2023/06/22 09:45:11;;;;;;;3.72;2.95;;;;;;;27.71;41.83;100530.97;5131710;27;20195;-59
2023/06/22 09:47:41;;;;;;;2.70;2.50;;;;;;;27.83;40.44;100527.41;5132008;27;20218;-60
2023/06/22 09:50:09;;;;;;;3.67;2.72;;;;;;;27.86;39.52;100521.88;5132777;27;20203;-60
2023/06/22 09:52:38;;;;;;;3.60;2.63;;;;;;;27.92;39.16;100521.41;5131825;27;20203;-59
2023/06/22 09:55:09;;;;;;;3.88;3.03;;;;;;;28.00;38.93;100520.00;5119289;27;20622;-60
2023/06/22 09:57:37;;;;;;;3.88;2.80;;;;;;;28.00;38.96;100520.00;5132460;27;20390;-60
2023/06/22 10:00:09;;;;;;;3.28;3.00;;;;;;;28.03;39.68;100527.72;5131404;27;20249;-60
2023/06/22 10:02:37;;;;;;;3.95;2.83;;;;;;;28.20;39.17;100529.03;5130644;27;20199;-59
2023/06/22 10:05:07;;;;;;;3.05;2.80;;;;;;;28.56;39.05;100525.34;5133200;27;20263;-58
2023/06/22 10:07:39;;;;;;;6.10;2.90;;;;;;;28.93;38.27;100514.44;5133164;27;20671;-58
2023/06/22 10:10:09;;;;;;;7.07;3.05;;;;;;;29.54;37.06;100520.03;5133034;27;20248;-57
2023/06/22 10:12:37;;;;;;;4.38;3.30;;;;;;;30.16;36.77;100516.56;5133003;27;20210;-58
2023/06/22 10:15:06;;;;;;;4.45;3.25;;;;;;;30.87;34.47;100526.38;5132723;27;20218;-59
2023/06/22 10:17:34;;;;;;;3.70;3.17;;;;;;;31.76;33.81;100524.44;5133385;27;20207;-58
2023/06/22 10:20:10;;;;;;;3.30;3.00;;;;;;;32.60;31.70;100513.84;5131102;27;20208;-59
2023/06/22 10:22:44;;;;;;;4.57;3.35;;;;;;;33.34;30.65;100518.13;5132189;27;20568;-59
2023/06/22 10:25:14;;;;;;;2.97;2.70;;;;;;;34.36;29.51;100524.72;5131804;27;20668;-58
2023/06/22 10:27:42;;;;;;;3.05;2.80;;;;;;;34.62;28.32;100513.97;5132697;27;20203;-59
2023/06/22 10:30:12;;;;;;;5.20;3.05;;;;;;;34.90;28.09;100521.72;5132650;27;20250;-59
2023/06/22 10:32:42;;;;;;;2.92;2.72;;;;;;;34.78;26.98;100518.53;5132644;27;20191;-58
2023/06/22 10:35:13;;;;;;;3.00;2.72;;;;;;;34.53;26.58;100513.09;5132471;27;20222;-59
2023/06/22 10:37:44;;;;;;;3.00;2.75;;;;;;;34.64;27.55;100514.63;5132264;27;20252;-58
2023/06/22 10:40:19;;;;;;;5.07;2.80;;;;;;;35.01;27.61;100502.69;5131259;27;20666;-60
2023/06/22 10:42:50;;;;;;;3.33;2.70;;;;;;;35.30;26.38;100505.75;5132447;27;20199;-59
2023/06/22 10:45:18;;;;;;;3.95;2.88;;;;;;;35.23;26.67;100501.22;5132932;27;20628;-59
2023/06/22 10:47:46;;;;;;;3.47;2.80;;;;;;;35.20;27.56;100499.72;5132263;27;20203;-59
2023/06/22 10:50:14;;;;;;;5.15;3.20;;;;;;;35.51;25.93;100494.56;5132022;27;20214;-59
2023/06/22 10:52:44;;;;;;;2.92;2.72;;;;;;;35.14;27.14;100502.22;5132637;27;20252;-60
2023/06/22 10:55:12;;;;;;;5.97;3.28;;;;;;;35.03;27.34;100498.03;5128634;27;20267;-59
2023/06/22 10:57:43;;;;;;;3.40;3.00;;;;;;;35.13;27.32;100495.19;5132188;27;20208;-58
2023/06/22 11:00:13;;;;;;;4.43;3.47;;;;;;;35.25;27.53;100499.22;5132367;27;20304;-59
2023/06/22 11:02:41;;;;;;;4.68;3.40;;;;;;;35.42;27.00;100490.16;5128405;27;20203;-58
2023/06/22 11:05:10;;;;;;;6.00;4.28;;;;;;;35.54;27.50;100482.66;5129213;27;20207;-58
2023/06/22 11:07:45;;;;;;;4.63;4.03;;;;;;;35.64;27.13;100485.97;5130602;27;20203;-58
2023/06/22 11:10:14;;;;;;;11.50;6.93;;;;;;;35.41;26.44;100480.44;5131839;27;20669;-59
2023/06/22 11:12:43;;;;;;;7.15;4.07;;;;;;;35.27;26.84;100481.13;5131677;27;20195;-60
2023/06/22 11:15:11;;;;;;;8.75;6.13;;;;;;;35.33;27.03;100481.28;5130433;27;20644;-59
2023/06/22 11:17:39;;;;;;;4.05;3.60;;;;;;;35.56;27.29;100488.69;5130925;27;20199;-59
2023/06/22 11:20:10;;;;;;;7.22;4.45;;;;;;;35.37;26.77;100487.16;5133826;27;20271;-59
2023/06/22 11:22:39;;;;;;;5.70;3.90;;;;;;;35.00;27.14;100477.75;5133530;27;20239;-61
2023/06/22 11:25:11;;;;;;;4.35;3.65;;;;;;;34.44;27.08;100473.91;5127768;27;20537;-59